Bud Sonier — WDE9248 — position and weather

sailwx.info

Track history (hours):
 
Tides and Currents Weather Stations Pressure Air Temp Water Temp Dewpoint Dewpoint Depression Visibility Wind Speed Wind Dir Waves Ship Positions

Bud Sonier

Owner: LeBeouf Bros. Towing, LLC, Houma, LA. More information available from US FCC via Universal Licensing System and Coast Guard Vessel Documentation Center.

Last reported at 2018-Jun-22 05:00 UTC. Time now 2018-Jun-22 05:23 UTC.
Position N 29°42' W 095°03'.

Length 22 m; draft 3 m.

Type: Towing. MMSI: 367415180.

Date/timePositionNaut miles runAvg speedWind from/ knotsBaromVisibWave heightAir tempDewpointWater temp
2018-Jun-22 05:00N 29°42' W 095°03'0 0.0
2018-Jun-22 04:30N 29°42' W 095°03'0 0.0
2018-Jun-22 04:00N 29°42' W 095°03'0 0.0
2018-Jun-22 03:30N 29°42' W 095°03'0 0.0
2018-Jun-22 03:00N 29°42' W 095°03'0 0.0
2018-Jun-22 02:30N 29°42' W 095°03'0 0.0
2018-Jun-22 01:58N 29°42' W 095°03'0 0.0
2018-Jun-22 01:27N 29°42' W 095°03'0 0.0
2018-Jun-22 01:00N 29°42' W 095°03'0 0.0
2018-Jun-22 00:27N 29°42' W 095°03'0 0.0
2018-Jun-21 23:57N 29°42' W 095°03'0 0.0
2018-Jun-21 23:30N 29°42' W 095°03'0 0.0
2018-Jun-21 22:59N 29°42' W 095°03'0 0.0
2018-Jun-21 22:29N 29°42' W 095°03'0 0.0
2018-Jun-21 21:59N 29°42' W 095°03'0 0.0
2018-Jun-21 21:26N 29°42' W 095°03'0 0.0
2018-Jun-21 20:53N 29°42' W 095°03'0 0.0
2018-Jun-21 20:25N 29°42' W 095°03'0 0.0
2018-Jun-21 19:52N 29°42' W 095°03'0 0.0
2018-Jun-21 19:27N 29°42' W 095°03'0 0.0
2018-Jun-21 18:59N 29°42' W 095°03'1 0.8
2018-Jun-21 17:16N 29°42' W 095°01'2 6.5
2018-Jun-21 17:00N 29°42' W 094°59'4 7.2
2018-Jun-21 16:30N 29°38' W 094°58'4 7.7
2018-Jun-21 15:59N 29°35' W 094°56'4 7.6
2018-Jun-21 15:27N 29°31' W 094°53'4 8.0
2018-Jun-21 14:56N 29°28' W 094°51'3 7.9
2018-Jun-21 14:30N 29°25' W 094°49'3 6.9
2018-Jun-21 14:01N 29°21' W 094°49'3 6.0
2018-Jun-21 13:30N 29°19' W 094°51'3 6.2
2018-Jun-21 13:01N 29°17' W 094°54'3 6.7
2018-Jun-21 12:30N 29°17' W 094°58'3 6.1
2018-Jun-21 12:00N 29°15' W 095°00'3 6.0
2018-Jun-21 11:30N 29°13' W 095°02'3 5.6
2018-Jun-21 11:00N 29°11' W 095°05'3 5.6
2018-Jun-21 10:30N 29°10' W 095°08'2 4.6
2018-Jun-21 10:00N 29°12' W 095°09'2 4.5
2018-Jun-21 09:31N 29°13' W 095°12'2 3.7
2018-Jun-21 09:00N 29°14' W 095°13'1 1.4
2018-Jun-21 08:30N 29°15' W 095°13'0 0.1
2018-Jun-21 08:00N 29°15' W 095°13'0 0.0
2018-Jun-21 07:31N 29°15' W 095°13'0 0.0
2018-Jun-21 07:00N 29°15' W 095°13'0 0.0
2018-Jun-21 06:31N 29°15' W 095°13'0 0.0
2018-Jun-21 06:00N 29°15' W 095°13'0 0.0
2018-Jun-21 05:30N 29°15' W 095°13'0 0.0
2018-Jun-21 05:00N 29°15' W 095°13'0 0.0
2018-Jun-21 04:31N 29°15' W 095°13'0 0.0
2018-Jun-21 04:01N 29°15' W 095°13'0 0.0
2018-Jun-21 03:30N 29°15' W 095°13'0 0.0
2018-Jun-21 03:00N 29°15' W 095°13'0 0.0
2018-Jun-21 02:30N 29°15' W 095°13'0 0.0
2018-Jun-21 02:01N 29°15' W 095°13'0 0.0
2018-Jun-21 01:31N 29°15' W 095°13'0 0.0
2018-Jun-21 01:00N 29°15' W 095°13'0 0.0
2018-Jun-21 00:30N 29°15' W 095°13'0 0.0
2018-Jun-21 00:01N 29°15' W 095°13'0 0.0
2018-Jun-20 23:31N 29°15' W 095°13'0 0.0
2018-Jun-20 23:01N 29°15' W 095°13'0 0.0
2018-Jun-20 22:30N 29°15' W 095°13'0 0.0
2018-Jun-20 22:00N 29°15' W 095°13'0 0.0
2018-Jun-20 21:30N 29°15' W 095°13'0 0.0
2018-Jun-20 21:01N 29°15' W 095°13'0 0.0
2018-Jun-20 20:30N 29°15' W 095°13'0 0.0
2018-Jun-20 20:00N 29°15' W 095°13'0 0.2
2018-Jun-20 19:31N 29°15' W 095°13'2 3.4
2018-Jun-20 19:01N 29°13' W 095°13'1 2.5
2018-Jun-20 18:30N 29°14' W 095°13'0 0.1
2018-Jun-20 18:01N 29°14' W 095°13'0 0.0
2018-Jun-20 17:31N 29°14' W 095°13'0 0.0
2018-Jun-20 17:01N 29°14' W 095°13'0 0.0
2018-Jun-20 16:31N 29°14' W 095°13'0 0.0
2018-Jun-20 16:01N 29°14' W 095°13'0 0.0
2018-Jun-20 15:31N 29°14' W 095°13'0 0.0
2018-Jun-20 15:00N 29°14' W 095°13'0 0.0
2018-Jun-20 14:30N 29°14' W 095°13'0 0.0
2018-Jun-20 14:00N 29°14' W 095°13'0 0.0
2018-Jun-20 13:31N 29°14' W 095°13'0 0.0
2018-Jun-20 13:01N 29°14' W 095°13'0 0.0
2018-Jun-20 12:31N 29°14' W 095°13'0 0.0
2018-Jun-20 12:00N 29°14' W 095°13'0 0.0
2018-Jun-20 03:14N 29°14' W 095°13'0 0.0
2018-Jun-20 03:01N 29°14' W 095°13'0 0.0
2018-Jun-20 02:30N 29°14' W 095°13'0 0.0
2018-Jun-20 02:01N 29°14' W 095°13'0 0.0
2018-Jun-20 01:31N 29°14' W 095°13'0 0.0
2018-Jun-20 01:00N 29°14' W 095°13'0 0.0
2018-Jun-20 00:30N 29°14' W 095°13'0 0.0
2018-Jun-20 00:01N 29°14' W 095°13'0 0.0
2018-Jun-19 23:31N 29°14' W 095°13'0 0.0
2018-Jun-19 23:00N 29°14' W 095°13'0 0.0
2018-Jun-19 22:30N 29°14' W 095°13'0 0.0
2018-Jun-19 22:01N 29°14' W 095°13'0 0.8
2018-Jun-19 21:31N 29°15' W 095°13'0 0.0
2018-Jun-19 21:00N 29°15' W 095°13'0 0.0
2018-Jun-19 20:30N 29°15' W 095°13'0 0.0
2018-Jun-19 20:01N 29°15' W 095°13'0 0.0
2018-Jun-19 19:30N 29°15' W 095°13'0 0.2
2018-Jun-19 19:00N 29°14' W 095°13'0 0.6
2018-Jun-19 18:26N 29°14' W 095°13'0 0.0
2018-Jun-19 18:00N 29°14' W 095°13'0 0.0
2018-Jun-19 17:28N 29°14' W 095°13'0 0.0
2018-Jun-19 17:00N 29°14' W 095°13'0 0.0
2018-Jun-19 16:31N 29°14' W 095°13'0 0.0
2018-Jun-19 15:59N 29°14' W 095°13'0 0.0
2018-Jun-19 15:29N 29°14' W 095°13'0 0.0
2018-Jun-19 15:00N 29°14' W 095°13'0 0.0
2018-Jun-19 14:30N 29°14' W 095°13'0 0.0
2018-Jun-19 14:00N 29°14' W 095°13'0 0.0
2018-Jun-19 13:30N 29°14' W 095°13'0 0.0
2018-Jun-19 13:01N 29°14' W 095°13'0 0.0
2018-Jun-19 12:30N 29°14' W 095°13'0 0.0
2018-Jun-19 12:01N 29°14' W 095°13'0 0.0
2018-Jun-19 11:31N 29°14' W 095°13'0 0.0
2018-Jun-19 11:00N 29°14' W 095°13'0 0.0
2018-Jun-19 10:29N 29°14' W 095°13'0 0.0
2018-Jun-19 10:01N 29°14' W 095°13'0 0.0
2018-Jun-19 09:30N 29°14' W 095°13'0 0.0
2018-Jun-19 08:57N 29°14' W 095°13'0 0.0
2018-Jun-19 08:31N 29°14' W 095°13'0 0.0
2018-Jun-19 08:00N 29°14' W 095°13'0 0.0
2018-Jun-19 07:28N 29°14' W 095°13'0 0.0
2018-Jun-19 07:00N 29°14' W 095°13'0 0.0
2018-Jun-19 06:31N 29°14' W 095°13'0 0.0
2018-Jun-19 06:00N 29°14' W 095°13'0 0.0
2018-Jun-19 05:31N 29°14' W 095°13'0 0.0
2018-Jun-19 05:00N 29°14' W 095°13'0 0.0
2018-Jun-19 04:30N 29°14' W 095°13'0 0.0
2018-Jun-19 04:00N 29°14' W 095°13'0 0.0
2018-Jun-19 03:30N 29°14' W 095°13'0 0.0
2018-Jun-19 03:01N 29°14' W 095°13'0 0.0
2018-Jun-19 02:30N 29°14' W 095°13'0 0.0
2018-Jun-19 01:59N 29°14' W 095°13'0 0.0
2018-Jun-19 01:30N 29°14' W 095°13'0 0.0
2018-Jun-19 01:01N 29°14' W 095°13'0 0.0
2018-Jun-19 00:28N 29°14' W 095°13'0 0.0
2018-Jun-19 00:00N 29°14' W 095°13'0 0.0
2018-Jun-18 23:30N 29°14' W 095°13'0 0.0
2018-Jun-18 23:01N 29°14' W 095°13'0 0.0
2018-Jun-18 22:31N 29°14' W 095°13'0 0.0
2018-Jun-18 22:01N 29°14' W 095°13'0 0.0
2018-Jun-18 21:31N 29°14' W 095°13'0 0.0
2018-Jun-18 21:01N 29°14' W 095°13'0 0.0
2018-Jun-18 20:31N 29°14' W 095°13'0 0.0
2018-Jun-18 20:01N 29°14' W 095°13'0 0.0
2018-Jun-18 19:30N 29°14' W 095°13'0 0.0
2018-Jun-18 19:01N 29°14' W 095°13'0 0.0
2018-Jun-18 18:30N 29°14' W 095°13'0 0.0
2018-Jun-18 18:00N 29°14' W 095°13'0 0.0
2018-Jun-18 17:30N 29°14' W 095°13'0 0.0
2018-Jun-18 17:00N 29°14' W 095°13'0 0.0
2018-Jun-18 16:31N 29°14' W 095°13'0 0.0
2018-Jun-18 15:59N 29°14' W 095°13'0 0.0
2018-Jun-18 15:29N 29°14' W 095°13'0 0.0
2018-Jun-18 15:01N 29°14' W 095°13'0 0.0
2018-Jun-18 14:31N 29°14' W 095°13'0 0.0
2018-Jun-18 14:00N 29°14' W 095°13'0 0.0
2018-Jun-18 13:30N 29°14' W 095°13'0 0.0
2018-Jun-18 13:00N 29°14' W 095°13'0 0.0
2018-Jun-18 12:31N 29°14' W 095°13'0 0.0
2018-Jun-18 12:00N 29°14' W 095°13'0 0.0
2018-Jun-18 11:30N 29°14' W 095°13'0 0.0
2018-Jun-18 11:00N 29°14' W 095°13'0 0.0
2018-Jun-18 10:31N 29°14' W 095°13'0 0.0
2018-Jun-18 10:00N 29°14' W 095°13'0 0.0
2018-Jun-18 09:31N 29°14' W 095°13'0 0.0
2018-Jun-18 09:01N 29°14' W 095°13'0 0.0
2018-Jun-18 08:30N 29°14' W 095°13'0 0.0
2018-Jun-18 07:59N 29°14' W 095°13'0 0.0
2018-Jun-18 07:31N 29°14' W 095°13'0 0.0
2018-Jun-18 07:00N 29°14' W 095°13'0 0.0
2018-Jun-18 06:30N 29°14' W 095°13'0 0.0
2018-Jun-18 05:59N 29°14' W 095°13'0 0.0
2018-Jun-18 05:28N 29°14' W 095°13'0 0.0
2018-Jun-18 05:01N 29°14' W 095°13'0 0.0
2018-Jun-18 04:30N 29°14' W 095°13'0 0.0
2018-Jun-18 03:59N 29°14' W 095°13'0 0.0
2018-Jun-18 03:31N 29°14' W 095°13'0 0.0
2018-Jun-18 03:00N 29°14' W 095°13'0 0.0
2018-Jun-18 02:31N 29°14' W 095°13'0 0.0
2018-Jun-18 01:59N 29°14' W 095°13'0 0.0
2018-Jun-18 01:30N 29°14' W 095°13'0 0.0
2018-Jun-18 01:00N 29°14' W 095°13'0 0.0
2018-Jun-18 00:30N 29°14' W 095°13'0 0.0
2018-Jun-17 23:58N 29°14' W 095°13'0 0.0
2018-Jun-17 23:30N 29°14' W 095°13'0 0.0
2018-Jun-17 23:00N 29°14' W 095°13'0 0.0
2018-Jun-17 22:30N 29°14' W 095°13'0 0.0
2018-Jun-17 22:01N 29°14' W 095°13'0 0.0
2018-Jun-17 21:30N 29°14' W 095°13'0 0.0
2018-Jun-17 20:59N 29°14' W 095°13'0 0.0
2018-Jun-17 20:30N 29°14' W 095°13'0 0.0
2018-Jun-17 19:59N 29°14' W 095°13'0 0.0
2018-Jun-17 19:30N 29°14' W 095°13'0 0.0
2018-Jun-17 19:01N 29°14' W 095°13'0 0.0
2018-Jun-17 18:27N 29°14' W 095°13'0 0.0
2018-Jun-17 18:00N 29°14' W 095°13'0 0.0
2018-Jun-17 17:31N 29°14' W 095°13'0 0.0
2018-Jun-17 16:59N 29°14' W 095°13'0 0.0
2018-Jun-17 16:26N 29°14' W 095°13'0 0.0
2018-Jun-17 15:57N 29°14' W 095°13'0 0.0
2018-Jun-17 15:28N 29°14' W 095°13'0 0.0
2018-Jun-17 15:01N 29°14' W 095°13'0 0.0
2018-Jun-17 14:30N 29°14' W 095°13'0 0.0
2018-Jun-17 13:58N 29°14' W 095°13'0 0.0
2018-Jun-17 13:28N 29°14' W 095°13'0 0.0
2018-Jun-17 12:59N 29°14' W 095°13'0 0.0
2018-Jun-17 03:22N 29°14' W 095°13'0 0.0
2018-Jun-17 03:00N 29°14' W 095°13'0 0.0
2018-Jun-17 02:30N 29°14' W 095°13'0 0.0
2018-Jun-17 02:01N 29°14' W 095°13'0 0.0
2018-Jun-17 01:31N 29°14' W 095°13'0 0.0
2018-Jun-17 01:00N 29°14' W 095°13'0 0.0
2018-Jun-17 00:29N 29°14' W 095°13'0 0.0
2018-Jun-17 00:00N 29°14' W 095°13'0 0.0
2018-Jun-16 23:28N 29°14' W 095°13'0 0.0
2018-Jun-16 23:01N 29°14' W 095°13'0 0.0
2018-Jun-16 22:30N 29°14' W 095°13'0 0.0
2018-Jun-16 22:00N 29°14' W 095°13'0 0.0
2018-Jun-16 21:30N 29°14' W 095°13'0 0.0
2018-Jun-16 21:00N 29°14' W 095°13'0 0.0
2018-Jun-16 20:29N 29°14' W 095°13'0 0.0
2018-Jun-16 19:59N 29°14' W 095°13'0 0.0
2018-Jun-16 19:30N 29°14' W 095°13'0 0.0
2018-Jun-16 18:59N 29°14' W 095°13'0 0.0
2018-Jun-16 18:30N 29°14' W 095°13'0 0.0
2018-Jun-16 18:00N 29°14' W 095°13'0 0.0
2018-Jun-16 17:28N 29°14' W 095°13'0 0.0
2018-Jun-16 17:01N 29°14' W 095°13'0 0.0
2018-Jun-16 16:31N 29°14' W 095°13'0 0.0
2018-Jun-16 16:00N 29°14' W 095°13'0 0.0
2018-Jun-16 15:30N 29°14' W 095°13'0 0.0
2018-Jun-16 15:01N 29°14' W 095°13'0 0.0
2018-Jun-16 14:27N 29°14' W 095°13'1 1.6
2018-Jun-16 14:00N 29°13' W 095°13'3 5.5
2018-Jun-16 13:30N 29°12' W 095°10'3 5.9
2018-Jun-16 13:00N 29°10' W 095°08'3 6.3
2018-Jun-16 12:30N 29°11' W 095°05'3 6.8
2018-Jun-16 12:00N 29°13' W 095°02'21 5.1
2018-Jun-16 07:51N 29°34' W 094°55'5 7.8
2018-Jun-16 07:11N 29°39' W 094°58'3 8.6
2018-Jun-16 06:52N 29°41' W 094°59'3 0.1
2018-Jun-14 22:18N 29°43' W 095°01'2 5.6
2018-Jun-14 21:59N 29°42' W 094°60'3 6.5
2018-Jun-14 21:30N 29°39' W 094°58'4 7.4
2018-Jun-14 21:00N 29°36' W 094°57'4 7.6
2018-Jun-14 20:26N 29°32' W 094°54'3 7.8
2018-Jun-14 20:01N 29°29' W 094°52'4 7.7
2018-Jun-14 19:30N 29°26' W 094°50'4 7.4
2018-Jun-14 18:59N 29°22' W 094°48'3 5.6
2018-Jun-14 18:30N 29°24' W 094°45'0 0.0
2018-Jun-14 17:57N 29°24' W 094°45'0 0.0
2018-Jun-14 17:30N 29°24' W 094°45'0 0.0
2018-Jun-14 16:58N 29°24' W 094°45'0 0.3
2018-Jun-14 16:27N 29°24' W 094°45'1 3.1
2018-Jun-14 16:00N 29°23' W 094°46'3 6.5
2018-Jun-14 15:31N 29°21' W 094°49'0 0.2
2018-Jun-14 15:00N 29°21' W 094°49'0 0.0
2018-Jun-14 14:31N 29°21' W 094°49'0 0.0
2018-Jun-14 13:59N 29°21' W 094°49'0 0.0
2018-Jun-14 13:31N 29°21' W 094°49'0 0.0
2018-Jun-14 13:00N 29°21' W 094°49'0 0.0
2018-Jun-14 12:30N 29°21' W 094°49'0 0.0
2018-Jun-14 12:00N 29°21' W 094°49'0 0.0
2018-Jun-14 11:31N 29°21' W 094°49'0 0.0
2018-Jun-14 10:59N 29°21' W 094°49'0 0.0
2018-Jun-14 10:29N 29°21' W 094°49'0 0.0
2018-Jun-14 10:00N 29°21' W 094°49'0 0.0
2018-Jun-14 09:31N 29°21' W 094°49'0 0.0
2018-Jun-14 09:00N 29°21' W 094°49'0 0.0
2018-Jun-14 08:30N 29°21' W 094°49'0 0.0
2018-Jun-14 08:00N 29°21' W 094°49'0 0.0
2018-Jun-14 07:30N 29°21' W 094°49'0 0.0
2018-Jun-14 07:01N 29°21' W 094°49'0 0.0
2018-Jun-14 06:31N 29°21' W 094°49'0 0.0
2018-Jun-14 06:00N 29°21' W 094°49'0 0.0
2018-Jun-14 05:31N 29°21' W 094°49'0 0.0
2018-Jun-14 05:00N 29°21' W 094°49'0 0.0
2018-Jun-14 04:31N 29°21' W 094°49'0 0.0
2018-Jun-14 04:01N 29°21' W 094°49'0 0.0
2018-Jun-14 03:30N 29°21' W 094°49'0 0.0
2018-Jun-14 03:00N 29°21' W 094°49'0 0.0
2018-Jun-14 02:29N 29°21' W 094°49'0 0.0
2018-Jun-14 02:00N 29°21' W 094°49'0 0.0
2018-Jun-14 01:30N 29°21' W 094°49'0 0.0
2018-Jun-14 01:00N 29°21' W 094°49'0 0.0
2018-Jun-14 00:30N 29°21' W 094°49'0 0.0
2018-Jun-14 00:01N 29°21' W 094°49'0 0.0
2018-Jun-13 23:30N 29°21' W 094°49'0 0.0
2018-Jun-13 22:59N 29°21' W 094°49'1 3.0
2018-Jun-13 22:31N 29°22' W 094°48'12 8.9
2018-Jun-13 21:11N 29°33' W 094°54'2 8.7
2018-Jun-13 20:59N 29°34' W 094°55'4 7.9
2018-Jun-13 20:30N 29°37' W 094°59'2 0.6
2018-Jun-13 16:52N 29°36' W 095°01'0 0.0
2018-Jun-13 10:44N 29°36' W 095°01'0 0.0
2018-Jun-13 10:19N 29°36' W 095°01'0 0.0
2018-Jun-13 08:02N 29°36' W 095°01'0 0.2
2018-Jun-13 07:59N 29°36' W 095°01'0 0.0
2018-Jun-13 04:10N 29°36' W 095°01'0 0.0
2018-Jun-13 03:47N 29°36' W 095°01'0 0.0
2018-Jun-13 01:51N 29°36' W 095°01'0 0.0
2018-Jun-13 01:26N 29°36' W 095°01'0 0.0
2018-Jun-13 00:57N 29°36' W 095°01'0 0.0
2018-Jun-13 00:29N 29°36' W 095°01'0 0.0
2018-Jun-12 23:54N 29°36' W 095°01'2 4.8
2018-Jun-12 23:30N 29°37' W 094°59'5 4.8
2018-Jun-12 22:33N 29°41' W 094°59'3 0.4
2018-Jun-12 13:27N 29°42' W 095°03'0 1.1
2018-Jun-12 13:00N 29°42' W 095°02'2 4.3
2018-Jun-12 12:28N 29°42' W 094°60'3 7.5
2018-Jun-12 12:01N 29°39' W 094°58'4 7.5
2018-Jun-12 11:26N 29°35' W 094°56'  
Track history (hours):
 
Tides and Currents Weather Stations Pressure Air Temp Water Temp Dewpoint Dewpoint Depression Visibility Wind Speed Wind Dir Waves Ship Positions

Bud Sonier

Owner: LeBeouf Bros. Towing, LLC, Houma, LA. More information available from US FCC via Universal Licensing System and Coast Guard Vessel Documentation Center.

Last reported at 2018-Jun-22 05:00 UTC. Time now 2018-Jun-22 05:23 UTC.
Position N 29°42' W 095°03'.

Length 22 m; draft 3 m.

Type: Towing. MMSI: 367415180.

Date/timePositionNaut miles runAvg speedWind from/ knotsBaromVisibWave heightAir tempDewpointWater temp
2018-Jun-22 05:00N 29°42' W 095°03'0 0.0
2018-Jun-22 04:30N 29°42' W 095°03'0 0.0
2018-Jun-22 04:00N 29°42' W 095°03'0 0.0
2018-Jun-22 03:30N 29°42' W 095°03'0 0.0
2018-Jun-22 03:00N 29°42' W 095°03'0 0.0
2018-Jun-22 02:30N 29°42' W 095°03'0 0.0
2018-Jun-22 01:58N 29°42' W 095°03'0 0.0
2018-Jun-22 01:27N 29°42' W 095°03'0 0.0
2018-Jun-22 01:00N 29°42' W 095°03'0 0.0
2018-Jun-22 00:27N 29°42' W 095°03'0 0.0
2018-Jun-21 23:57N 29°42' W 095°03'0 0.0
2018-Jun-21 23:30N 29°42' W 095°03'0 0.0
2018-Jun-21 22:59N 29°42' W 095°03'0 0.0
2018-Jun-21 22:29N 29°42' W 095°03'0 0.0
2018-Jun-21 21:59N 29°42' W 095°03'0 0.0
2018-Jun-21 21:26N 29°42' W 095°03'0 0.0
2018-Jun-21 20:53N 29°42' W 095°03'0 0.0
2018-Jun-21 20:25N 29°42' W 095°03'0 0.0
2018-Jun-21 19:52N 29°42' W 095°03'0 0.0
2018-Jun-21 19:27N 29°42' W 095°03'0 0.0
2018-Jun-21 18:59N 29°42' W 095°03'1 0.8
2018-Jun-21 17:16N 29°42' W 095°01'2 6.5
2018-Jun-21 17:00N 29°42' W 094°59'4 7.2
2018-Jun-21 16:30N 29°38' W 094°58'4 7.7
2018-Jun-21 15:59N 29°35' W 094°56'4 7.6
2018-Jun-21 15:27N 29°31' W 094°53'4 8.0
2018-Jun-21 14:56N 29°28' W 094°51'3 7.9
2018-Jun-21 14:30N 29°25' W 094°49'3 6.9
2018-Jun-21 14:01N 29°21' W 094°49'3 6.0
2018-Jun-21 13:30N 29°19' W 094°51'3 6.2
2018-Jun-21 13:01N 29°17' W 094°54'3 6.7
2018-Jun-21 12:30N 29°17' W 094°58'3 6.1
2018-Jun-21 12:00N 29°15' W 095°00'3 6.0
2018-Jun-21 11:30N 29°13' W 095°02'3 5.6
2018-Jun-21 11:00N 29°11' W 095°05'3 5.6
2018-Jun-21 10:30N 29°10' W 095°08'2 4.6
2018-Jun-21 10:00N 29°12' W 095°09'2 4.5
2018-Jun-21 09:31N 29°13' W 095°12'2 3.7
2018-Jun-21 09:00N 29°14' W 095°13'1 1.4
2018-Jun-21 08:30N 29°15' W 095°13'0 0.1
2018-Jun-21 08:00N 29°15' W 095°13'0 0.0
2018-Jun-21 07:31N 29°15' W 095°13'0 0.0
2018-Jun-21 07:00N 29°15' W 095°13'0 0.0
2018-Jun-21 06:31N 29°15' W 095°13'0 0.0
2018-Jun-21 06:00N 29°15' W 095°13'0 0.0
2018-Jun-21 05:30N 29°15' W 095°13'0 0.0
2018-Jun-21 05:00N 29°15' W 095°13'0 0.0
2018-Jun-21 04:31N 29°15' W 095°13'0 0.0
2018-Jun-21 04:01N 29°15' W 095°13'0 0.0
2018-Jun-21 03:30N 29°15' W 095°13'0 0.0
2018-Jun-21 03:00N 29°15' W 095°13'0 0.0
2018-Jun-21 02:30N 29°15' W 095°13'0 0.0
2018-Jun-21 02:01N 29°15' W 095°13'0 0.0
2018-Jun-21 01:31N 29°15' W 095°13'0 0.0
2018-Jun-21 01:00N 29°15' W 095°13'0 0.0
2018-Jun-21 00:30N 29°15' W 095°13'0 0.0
2018-Jun-21 00:01N 29°15' W 095°13'0 0.0
2018-Jun-20 23:31N 29°15' W 095°13'0 0.0
2018-Jun-20 23:01N 29°15' W 095°13'0 0.0
2018-Jun-20 22:30N 29°15' W 095°13'0 0.0
2018-Jun-20 22:00N 29°15' W 095°13'0 0.0
2018-Jun-20 21:30N 29°15' W 095°13'0 0.0
2018-Jun-20 21:01N 29°15' W 095°13'0 0.0
2018-Jun-20 20:30N 29°15' W 095°13'0 0.0
2018-Jun-20 20:00N 29°15' W 095°13'0 0.2
2018-Jun-20 19:31N 29°15' W 095°13'2 3.4
2018-Jun-20 19:01N 29°13' W 095°13'1 2.5
2018-Jun-20 18:30N 29°14' W 095°13'0 0.1
2018-Jun-20 18:01N 29°14' W 095°13'0 0.0
2018-Jun-20 17:31N 29°14' W 095°13'0 0.0
2018-Jun-20 17:01N 29°14' W 095°13'0 0.0
2018-Jun-20 16:31N 29°14' W 095°13'0 0.0
2018-Jun-20 16:01N 29°14' W 095°13'0 0.0
2018-Jun-20 15:31N 29°14' W 095°13'0 0.0
2018-Jun-20 15:00N 29°14' W 095°13'0 0.0
2018-Jun-20 14:30N 29°14' W 095°13'0 0.0
2018-Jun-20 14:00N 29°14' W 095°13'0 0.0
2018-Jun-20 13:31N 29°14' W 095°13'0 0.0
2018-Jun-20 13:01N 29°14' W 095°13'0 0.0
2018-Jun-20 12:31N 29°14' W 095°13'0 0.0
2018-Jun-20 12:00N 29°14' W 095°13'0 0.0
2018-Jun-20 03:14N 29°14' W 095°13'0 0.0
2018-Jun-20 03:01N 29°14' W 095°13'0 0.0
2018-Jun-20 02:30N 29°14' W 095°13'0 0.0
2018-Jun-20 02:01N 29°14' W 095°13'0 0.0
2018-Jun-20 01:31N 29°14' W 095°13'0 0.0
2018-Jun-20 01:00N 29°14' W 095°13'0 0.0
2018-Jun-20 00:30N 29°14' W 095°13'0 0.0
2018-Jun-20 00:01N 29°14' W 095°13'0 0.0
2018-Jun-19 23:31N 29°14' W 095°13'0 0.0
2018-Jun-19 23:00N 29°14' W 095°13'0 0.0
2018-Jun-19 22:30N 29°14' W 095°13'0 0.0
2018-Jun-19 22:01N 29°14' W 095°13'0 0.8
2018-Jun-19 21:31N 29°15' W 095°13'0 0.0
2018-Jun-19 21:00N 29°15' W 095°13'0 0.0
2018-Jun-19 20:30N 29°15' W 095°13'0 0.0
2018-Jun-19 20:01N 29°15' W 095°13'0 0.0
2018-Jun-19 19:30N 29°15' W 095°13'0 0.2
2018-Jun-19 19:00N 29°14' W 095°13'0 0.6
2018-Jun-19 18:26N 29°14' W 095°13'0 0.0
2018-Jun-19 18:00N 29°14' W 095°13'0 0.0
2018-Jun-19 17:28N 29°14' W 095°13'0 0.0
2018-Jun-19 17:00N 29°14' W 095°13'0 0.0
2018-Jun-19 16:31N 29°14' W 095°13'0 0.0
2018-Jun-19 15:59N 29°14' W 095°13'0 0.0
2018-Jun-19 15:29N 29°14' W 095°13'0 0.0
2018-Jun-19 15:00N 29°14' W 095°13'0 0.0
2018-Jun-19 14:30N 29°14' W 095°13'0 0.0
2018-Jun-19 14:00N 29°14' W 095°13'0 0.0
2018-Jun-19 13:30N 29°14' W 095°13'0 0.0
2018-Jun-19 13:01N 29°14' W 095°13'0 0.0
2018-Jun-19 12:30N 29°14' W 095°13'0 0.0
2018-Jun-19 12:01N 29°14' W 095°13'0 0.0
2018-Jun-19 11:31N 29°14' W 095°13'0 0.0
2018-Jun-19 11:00N 29°14' W 095°13'0 0.0
2018-Jun-19 10:29N 29°14' W 095°13'0 0.0
2018-Jun-19 10:01N 29°14' W 095°13'0 0.0
2018-Jun-19 09:30N 29°14' W 095°13'0 0.0
2018-Jun-19 08:57N 29°14' W 095°13'0 0.0
2018-Jun-19 08:31N 29°14' W 095°13'0 0.0
2018-Jun-19 08:00N 29°14' W 095°13'0 0.0
2018-Jun-19 07:28N 29°14' W 095°13'0 0.0
2018-Jun-19 07:00N 29°14' W 095°13'0 0.0
2018-Jun-19 06:31N 29°14' W 095°13'0 0.0
2018-Jun-19 06:00N 29°14' W 095°13'0 0.0
2018-Jun-19 05:31N 29°14' W 095°13'0 0.0
2018-Jun-19 05:00N 29°14' W 095°13'0 0.0
2018-Jun-19 04:30N 29°14' W 095°13'0 0.0
2018-Jun-19 04:00N 29°14' W 095°13'0 0.0
2018-Jun-19 03:30N 29°14' W 095°13'0 0.0
2018-Jun-19 03:01N 29°14' W 095°13'0 0.0
2018-Jun-19 02:30N 29°14' W 095°13'0 0.0
2018-Jun-19 01:59N 29°14' W 095°13'0 0.0
2018-Jun-19 01:30N 29°14' W 095°13'0 0.0
2018-Jun-19 01:01N 29°14' W 095°13'0 0.0
2018-Jun-19 00:28N 29°14' W 095°13'0 0.0
2018-Jun-19 00:00N 29°14' W 095°13'0 0.0
2018-Jun-18 23:30N 29°14' W 095°13'0 0.0
2018-Jun-18 23:01N 29°14' W 095°13'0 0.0
2018-Jun-18 22:31N 29°14' W 095°13'0 0.0
2018-Jun-18 22:01N 29°14' W 095°13'0 0.0
2018-Jun-18 21:31N 29°14' W 095°13'0 0.0
2018-Jun-18 21:01N 29°14' W 095°13'0 0.0
2018-Jun-18 20:31N 29°14' W 095°13'0 0.0
2018-Jun-18 20:01N 29°14' W 095°13'0 0.0
2018-Jun-18 19:30N 29°14' W 095°13'0 0.0
2018-Jun-18 19:01N 29°14' W 095°13'0 0.0
2018-Jun-18 18:30N 29°14' W 095°13'0 0.0
2018-Jun-18 18:00N 29°14' W 095°13'0 0.0
2018-Jun-18 17:30N 29°14' W 095°13'0 0.0
2018-Jun-18 17:00N 29°14' W 095°13'0 0.0
2018-Jun-18 16:31N 29°14' W 095°13'0 0.0
2018-Jun-18 15:59N 29°14' W 095°13'0 0.0
2018-Jun-18 15:29N 29°14' W 095°13'0 0.0
2018-Jun-18 15:01N 29°14' W 095°13'0 0.0
2018-Jun-18 14:31N 29°14' W 095°13'0 0.0
2018-Jun-18 14:00N 29°14' W 095°13'0 0.0
2018-Jun-18 13:30N 29°14' W 095°13'0 0.0
2018-Jun-18 13:00N 29°14' W 095°13'0 0.0
2018-Jun-18 12:31N 29°14' W 095°13'0 0.0
2018-Jun-18 12:00N 29°14' W 095°13'0 0.0
2018-Jun-18 11:30N 29°14' W 095°13'0 0.0
2018-Jun-18 11:00N 29°14' W 095°13'0 0.0
2018-Jun-18 10:31N 29°14' W 095°13'0 0.0
2018-Jun-18 10:00N 29°14' W 095°13'0 0.0
2018-Jun-18 09:31N 29°14' W 095°13'0 0.0
2018-Jun-18 09:01N 29°14' W 095°13'0 0.0
2018-Jun-18 08:30N 29°14' W 095°13'0 0.0
2018-Jun-18 07:59N 29°14' W 095°13'0 0.0
2018-Jun-18 07:31N 29°14' W 095°13'0 0.0
2018-Jun-18 07:00N 29°14' W 095°13'0 0.0
2018-Jun-18 06:30N 29°14' W 095°13'0 0.0
2018-Jun-18 05:59N 29°14' W 095°13'0 0.0
2018-Jun-18 05:28N 29°14' W 095°13'0 0.0
2018-Jun-18 05:01N 29°14' W 095°13'0 0.0
2018-Jun-18 04:30N 29°14' W 095°13'0 0.0
2018-Jun-18 03:59N 29°14' W 095°13'0 0.0
2018-Jun-18 03:31N 29°14' W 095°13'0 0.0
2018-Jun-18 03:00N 29°14' W 095°13'0 0.0
2018-Jun-18 02:31N 29°14' W 095°13'0 0.0
2018-Jun-18 01:59N 29°14' W 095°13'0 0.0
2018-Jun-18 01:30N 29°14' W 095°13'0 0.0
2018-Jun-18 01:00N 29°14' W 095°13'0 0.0
2018-Jun-18 00:30N 29°14' W 095°13'0 0.0
2018-Jun-17 23:58N 29°14' W 095°13'0 0.0
2018-Jun-17 23:30N 29°14' W 095°13'0 0.0
2018-Jun-17 23:00N 29°14' W 095°13'0 0.0
2018-Jun-17 22:30N 29°14' W 095°13'0 0.0
2018-Jun-17 22:01N 29°14' W 095°13'0 0.0
2018-Jun-17 21:30N 29°14' W 095°13'0 0.0
2018-Jun-17 20:59N 29°14' W 095°13'0 0.0
2018-Jun-17 20:30N 29°14' W 095°13'0 0.0
2018-Jun-17 19:59N 29°14' W 095°13'0 0.0
2018-Jun-17 19:30N 29°14' W 095°13'0 0.0
2018-Jun-17 19:01N 29°14' W 095°13'0 0.0
2018-Jun-17 18:27N 29°14' W 095°13'0 0.0
2018-Jun-17 18:00N 29°14' W 095°13'0 0.0
2018-Jun-17 17:31N 29°14' W 095°13'0 0.0
2018-Jun-17 16:59N 29°14' W 095°13'0 0.0
2018-Jun-17 16:26N 29°14' W 095°13'0 0.0
2018-Jun-17 15:57N 29°14' W 095°13'0 0.0
2018-Jun-17 15:28N 29°14' W 095°13'0 0.0
2018-Jun-17 15:01N 29°14' W 095°13'0 0.0
2018-Jun-17 14:30N 29°14' W 095°13'0 0.0
2018-Jun-17 13:58N 29°14' W 095°13'0 0.0
2018-Jun-17 13:28N 29°14' W 095°13'0 0.0
2018-Jun-17 12:59N 29°14' W 095°13'0 0.0
2018-Jun-17 03:22N 29°14' W 095°13'0 0.0
2018-Jun-17 03:00N 29°14' W 095°13'0 0.0
2018-Jun-17 02:30N 29°14' W 095°13'0 0.0
2018-Jun-17 02:01N 29°14' W 095°13'0 0.0
2018-Jun-17 01:31N 29°14' W 095°13'0 0.0
2018-Jun-17 01:00N 29°14' W 095°13'0 0.0
2018-Jun-17 00:29N 29°14' W 095°13'0 0.0
2018-Jun-17 00:00N 29°14' W 095°13'0 0.0
2018-Jun-16 23:28N 29°14' W 095°13'0 0.0
2018-Jun-16 23:01N 29°14' W 095°13'0 0.0
2018-Jun-16 22:30N 29°14' W 095°13'0 0.0
2018-Jun-16 22:00N 29°14' W 095°13'0 0.0
2018-Jun-16 21:30N 29°14' W 095°13'0 0.0
2018-Jun-16 21:00N 29°14' W 095°13'0 0.0
2018-Jun-16 20:29N 29°14' W 095°13'0 0.0
2018-Jun-16 19:59N 29°14' W 095°13'0 0.0
2018-Jun-16 19:30N 29°14' W 095°13'0 0.0
2018-Jun-16 18:59N 29°14' W 095°13'0 0.0
2018-Jun-16 18:30N 29°14' W 095°13'0 0.0
2018-Jun-16 18:00N 29°14' W 095°13'0 0.0
2018-Jun-16 17:28N 29°14' W 095°13'0 0.0
2018-Jun-16 17:01N 29°14' W 095°13'0 0.0
2018-Jun-16 16:31N 29°14' W 095°13'0 0.0
2018-Jun-16 16:00N 29°14' W 095°13'0 0.0
2018-Jun-16 15:30N 29°14' W 095°13'0 0.0
2018-Jun-16 15:01N 29°14' W 095°13'0 0.0
2018-Jun-16 14:27N 29°14' W 095°13'1 1.6
2018-Jun-16 14:00N 29°13' W 095°13'3 5.5
2018-Jun-16 13:30N 29°12' W 095°10'3 5.9
2018-Jun-16 13:00N 29°10' W 095°08'3 6.3
2018-Jun-16 12:30N 29°11' W 095°05'3 6.8
2018-Jun-16 12:00N 29°13' W 095°02'21 5.1
2018-Jun-16 07:51N 29°34' W 094°55'5 7.8
2018-Jun-16 07:11N 29°39' W 094°58'3 8.6
2018-Jun-16 06:52N 29°41' W 094°59'3 0.1
2018-Jun-14 22:18N 29°43' W 095°01'2 5.6
2018-Jun-14 21:59N 29°42' W 094°60'3 6.5
2018-Jun-14 21:30N 29°39' W 094°58'4 7.4
2018-Jun-14 21:00N 29°36' W 094°57'4 7.6
2018-Jun-14 20:26N 29°32' W 094°54'3 7.8
2018-Jun-14 20:01N 29°29' W 094°52'4 7.7
2018-Jun-14 19:30N 29°26' W 094°50'4 7.4
2018-Jun-14 18:59N 29°22' W 094°48'3 5.6
2018-Jun-14 18:30N 29°24' W 094°45'0 0.0
2018-Jun-14 17:57N 29°24' W 094°45'0 0.0
2018-Jun-14 17:30N 29°24' W 094°45'0 0.0
2018-Jun-14 16:58N 29°24' W 094°45'0 0.3
2018-Jun-14 16:27N 29°24' W 094°45'1 3.1
2018-Jun-14 16:00N 29°23' W 094°46'3 6.5
2018-Jun-14 15:31N 29°21' W 094°49'0 0.2
2018-Jun-14 15:00N 29°21' W 094°49'0 0.0
2018-Jun-14 14:31N 29°21' W 094°49'0 0.0
2018-Jun-14 13:59N 29°21' W 094°49'0 0.0
2018-Jun-14 13:31N 29°21' W 094°49'0 0.0
2018-Jun-14 13:00N 29°21' W 094°49'0 0.0
2018-Jun-14 12:30N 29°21' W 094°49'0 0.0
2018-Jun-14 12:00N 29°21' W 094°49'0 0.0
2018-Jun-14 11:31N 29°21' W 094°49'0 0.0
2018-Jun-14 10:59N 29°21' W 094°49'0 0.0
2018-Jun-14 10:29N 29°21' W 094°49'0 0.0
2018-Jun-14 10:00N 29°21' W 094°49'0 0.0
2018-Jun-14 09:31N 29°21' W 094°49'0 0.0
2018-Jun-14 09:00N 29°21' W 094°49'0 0.0
2018-Jun-14 08:30N 29°21' W 094°49'0 0.0
2018-Jun-14 08:00N 29°21' W 094°49'0 0.0
2018-Jun-14 07:30N 29°21' W 094°49'0 0.0
2018-Jun-14 07:01N 29°21' W 094°49'0 0.0
2018-Jun-14 06:31N 29°21' W 094°49'0 0.0
2018-Jun-14 06:00N 29°21' W 094°49'0 0.0
2018-Jun-14 05:31N 29°21' W 094°49'0 0.0
2018-Jun-14 05:00N 29°21' W 094°49'0 0.0
2018-Jun-14 04:31N 29°21' W 094°49'0 0.0
2018-Jun-14 04:01N 29°21' W 094°49'0 0.0
2018-Jun-14 03:30N 29°21' W 094°49'0 0.0
2018-Jun-14 03:00N 29°21' W 094°49'0 0.0
2018-Jun-14 02:29N 29°21' W 094°49'0 0.0
2018-Jun-14 02:00N 29°21' W 094°49'0 0.0
2018-Jun-14 01:30N 29°21' W 094°49'0 0.0
2018-Jun-14 01:00N 29°21' W 094°49'0 0.0
2018-Jun-14 00:30N 29°21' W 094°49'0 0.0
2018-Jun-14 00:01N 29°21' W 094°49'0 0.0
2018-Jun-13 23:30N 29°21' W 094°49'0 0.0
2018-Jun-13 22:59N 29°21' W 094°49'1 3.0
2018-Jun-13 22:31N 29°22' W 094°48'12 8.9
2018-Jun-13 21:11N 29°33' W 094°54'2 8.7
2018-Jun-13 20:59N 29°34' W 094°55'4 7.9
2018-Jun-13 20:30N 29°37' W 094°59'2 0.6
2018-Jun-13 16:52N 29°36' W 095°01'0 0.0
2018-Jun-13 10:44N 29°36' W 095°01'0 0.0
2018-Jun-13 10:19N 29°36' W 095°01'0 0.0
2018-Jun-13 08:02N 29°36' W 095°01'0 0.2
2018-Jun-13 07:59N 29°36' W 095°01'0 0.0
2018-Jun-13 04:10N 29°36' W 095°01'0 0.0
2018-Jun-13 03:47N 29°36' W 095°01'0 0.0
2018-Jun-13 01:51N 29°36' W 095°01'0 0.0
2018-Jun-13 01:26N 29°36' W 095°01'0 0.0
2018-Jun-13 00:57N 29°36' W 095°01'0 0.0
2018-Jun-13 00:29N 29°36' W 095°01'0 0.0
2018-Jun-12 23:54N 29°36' W 095°01'2 4.8
2018-Jun-12 23:30N 29°37' W 094°59'5 4.8
2018-Jun-12 22:33N 29°41' W 094°59'3 0.4
2018-Jun-12 13:27N 29°42' W 095°03'0 1.1
2018-Jun-12 13:00N 29°42' W 095°02'2 4.3
2018-Jun-12 12:28N 29°42' W 094°60'3 7.5
2018-Jun-12 12:01N 29°39' W 094°58'4 7.5
2018-Jun-12 11:26N 29°35' W 094°56'  

Dump ship's entire track history